createdAt,value
2018-12-02T00:00:03.554Z,30.3
2018-12-02T00:00:53.140Z,30.3
2018-12-02T00:01:44.146Z,30.4
2018-12-02T00:02:34.384Z,30.5
2018-12-02T00:03:23.140Z,30.6
2018-12-02T00:04:13.689Z,30.6
2018-12-02T00:05:04.421Z,30.7
2018-12-02T00:05:54.866Z,30.8
2018-12-02T00:06:44.011Z,30.8
2018-12-02T00:24:55.802Z,28.1
2018-12-02T00:25:46.433Z,27.6
2018-12-02T00:26:35.720Z,27.3
2018-12-02T00:27:25.684Z,27.1
2018-12-02T00:28:15.019Z,26.9
2018-12-02T00:29:06.395Z,26.8
2018-12-02T00:29:56.269Z,26.7
2018-12-02T00:30:46.364Z,26.6
2018-12-02T00:31:36.047Z,26.4
2018-12-02T00:32:24.709Z,26.2
2018-12-02T00:33:15.102Z,25.9
2018-12-02T00:34:06.491Z,26.1
2018-12-02T00:34:55.709Z,26.6
2018-12-02T00:35:46.912Z,27
2018-12-02T00:36:35.547Z,27.3
2018-12-02T00:37:26.632Z,27.6
2018-12-02T00:39:06.301Z,28.1
2018-12-02T00:39:55.654Z,28.3
2018-12-02T00:40:46.894Z,28.5
2018-12-02T00:41:37.026Z,28.7
2018-12-02T00:42:26.766Z,28.9
2018-12-02T00:43:17.643Z,29.1
2018-12-02T00:44:08.198Z,29.2
2018-12-02T00:44:56.961Z,29.3
2018-12-02T00:45:46.269Z,29.5
2018-12-02T00:46:36.031Z,29.6
2018-12-02T00:47:26.158Z,29.7
2018-12-02T00:48:17.396Z,29.8
2018-12-02T00:49:07.745Z,29.9
2018-12-02T00:49:57.263Z,30
2018-12-02T00:50:47.056Z,30.1
2018-12-02T00:51:37.453Z,30.2
2018-12-02T00:52:27.214Z,30.3
2018-12-02T00:53:17.231Z,30.3
2018-12-02T00:54:07.038Z,30.4
2018-12-02T00:54:57.158Z,30.4
2018-12-02T00:55:48.205Z,30.4
2018-12-02T00:56:36.653Z,30.5
2018-12-02T00:57:28.808Z,30.6
2018-12-02T00:58:17.598Z,30.6
2018-12-02T00:59:07.081Z,30.6
2018-12-02T00:59:58.003Z,30.6
2018-12-02T01:00:47.223Z,30.6
2018-12-02T01:01:38.845Z,30.7
2018-12-02T01:02:28.155Z,30.7
2018-12-02T01:03:18.163Z,30.8
2018-12-02T01:04:08.040Z,30.8
2018-12-02T01:04:58.020Z,30.8
2018-12-02T01:05:47.905Z,30.7
2018-12-02T01:06:38.110Z,30.3
2018-12-02T01:07:28.413Z,29.9
2018-12-02T01:08:18.798Z,29.2
2018-12-02T01:09:07.327Z,28.4
2018-12-02T01:09:57.282Z,27.5
2018-12-02T01:10:49.054Z,26.6
2018-12-02T01:11:39.102Z,25.9
2018-12-02T01:12:28.031Z,25.8
2018-12-02T01:13:18.906Z,26.3
2018-12-02T01:14:08.984Z,26.9
2018-12-02T01:14:59.364Z,27.4
2018-12-02T01:15:49.580Z,27.8
2018-12-02T01:16:38.875Z,28
2018-12-02T01:17:29.446Z,28.2
2018-12-02T01:18:18.959Z,28.4
2018-12-02T01:19:09.278Z,28.7
2018-12-02T01:19:58.828Z,28.9
2018-12-02T01:20:48.754Z,29.1
2018-12-02T01:21:39.451Z,29.3
2018-12-02T01:22:29.081Z,29.5
2018-12-02T01:23:20.198Z,29.7
2018-12-02T01:24:09.431Z,29.9
2018-12-02T01:24:59.718Z,30
2018-12-02T01:25:50.558Z,30.1
2018-12-02T01:26:39.318Z,30.3
2018-12-02T01:27:30.145Z,30.3
2018-12-02T01:28:19.400Z,30.4
2018-12-02T01:29:09.443Z,30.6
2018-12-02T01:30:00.481Z,30.6
2018-12-02T01:30:50.211Z,30.7
2018-12-02T01:31:40.440Z,30.8
2018-12-02T01:32:29.907Z,30.9
2018-12-02T01:33:19.190Z,30.9
2018-12-02T01:34:10.540Z,31
2018-12-02T01:34:59.491Z,31.1
2018-12-02T01:35:51.010Z,31.1
2018-12-02T01:36:40.477Z,31.2
2018-12-02T01:37:30.045Z,31.2
2018-12-02T01:38:19.797Z,31.3
2018-12-02T01:39:10.456Z,31.1
2018-12-02T01:39:59.865Z,30.9
2018-12-02T01:40:50.485Z,30.8
2018-12-02T01:41:40.502Z,30.6
2018-12-02T01:42:31.876Z,30.4
2018-12-02T01:43:20.135Z,30.3
2018-12-02T01:44:10.947Z,30.2
2018-12-02T01:45:01.112Z,30
2018-12-02T01:45:50.547Z,29.9
2018-12-02T01:46:40.884Z,29.7
2018-12-02T01:47:30.392Z,29.6
2018-12-02T01:48:20.964Z,28.6
2018-12-02T01:50:00.569Z,27.4
2018-12-02T01:50:50.707Z,27.1
2018-12-02T01:51:40.673Z,26.9
2018-12-02T01:52:31.289Z,26.7
2018-12-02T01:53:20.987Z,26.6
2018-12-02T01:54:11.642Z,26.4
2018-12-02T01:55:01.004Z,26.3
2018-12-02T01:55:51.857Z,26
2018-12-02T01:56:40.711Z,26.1
2018-12-02T01:57:32.245Z,26.5
2018-12-02T01:58:21.424Z,26.9
2018-12-02T01:59:11.544Z,27.3
2018-12-02T02:00:00.752Z,27.6
2018-12-02T02:01:41.902Z,28
2018-12-02T02:02:31.991Z,28.3
2018-12-02T02:03:22.609Z,28.5
2018-12-02T02:04:11.866Z,28.8
2018-12-02T02:05:03.001Z,28.9
2018-12-02T02:05:51.922Z,29.1
2018-12-02T02:06:41.721Z,29.3
2018-12-02T02:07:33.094Z,29.4
2018-12-02T02:08:22.447Z,29.6
2018-12-02T02:09:11.390Z,29.7
2018-12-02T02:10:02.785Z,29.8
2018-12-02T02:10:52.533Z,29.9
2018-12-02T02:11:42.078Z,30
2018-12-02T02:12:32.738Z,30.1
2018-12-02T02:13:23.017Z,30.2
2018-12-02T02:14:13.536Z,30.3
2018-12-02T02:15:02.342Z,30.4
2018-12-02T02:15:52.408Z,30.4
2018-12-02T02:16:43.530Z,30.5
2018-12-02T02:17:32.691Z,30.6
2018-12-02T02:18:22.310Z,30.6
2018-12-02T02:19:12.587Z,30.7
2018-12-02T02:20:02.932Z,30.8
2018-12-02T02:20:53.224Z,30.8
2018-12-02T02:21:43.050Z,30.8
2018-12-02T02:22:32.767Z,30.9
2018-12-02T02:23:23.972Z,30.9
2018-12-02T02:24:14.010Z,31
2018-12-02T02:25:03.291Z,31
2018-12-02T02:25:53.375Z,31.1
2018-12-02T02:26:44.417Z,31.1
2018-12-02T02:27:33.674Z,31.1
2018-12-02T02:28:24.181Z,31.1
2018-12-02T02:29:12.749Z,31.2
2018-12-02T02:30:03.745Z,31.3
2018-12-02T02:30:53.444Z,31.3
2018-12-02T02:31:43.989Z,31.1
2018-12-02T02:32:34.347Z,31
2018-12-02T02:33:23.690Z,30.8
2018-12-02T02:34:13.922Z,30.6
2018-12-02T02:35:03.439Z,30.5
2018-12-02T02:35:53.776Z,30.3
2018-12-02T02:36:44.383Z,30.2
2018-12-02T02:37:35.001Z,30
2018-12-02T02:38:25.072Z,29.9
2018-12-02T02:39:15.392Z,29.8
2018-12-02T02:40:04.399Z,29.2
2018-12-02T02:40:55.166Z,28.2
2018-12-02T02:41:44.492Z,27.6
2018-12-02T02:42:34.526Z,27.3
2018-12-02T02:43:26.186Z,27.1
2018-12-02T02:44:14.839Z,26.9
2018-12-02T02:45:03.306Z,26.8
2018-12-02T02:45:55.076Z,26.6
2018-12-02T02:46:44.818Z,26.5
2018-12-02T02:47:34.803Z,26.4
2018-12-02T02:48:24.491Z,26.1
2018-12-02T02:49:14.947Z,26.1
2018-12-02T02:50:04.158Z,26.5
2018-12-02T02:50:55.074Z,27
2018-12-02T02:51:44.553Z,27.3
2018-12-02T02:52:35.442Z,27.6
2018-12-02T02:53:25.171Z,27.8
2018-12-02T02:54:15.893Z,27.9
2018-12-02T02:55:05.640Z,28.2
2018-12-02T02:55:55.450Z,28.4
2018-12-02T02:56:44.957Z,28.6
2018-12-02T02:57:35.795Z,28.8
2018-12-02T02:58:25.662Z,28.9
2018-12-02T02:59:16.433Z,29.1
2018-12-02T03:00:06.567Z,29.3
2018-12-02T03:00:54.733Z,29.4
2018-12-02T03:01:46.663Z,29.6
2018-12-02T03:02:35.863Z,29.6
2018-12-02T03:03:26.426Z,29.8
2018-12-02T03:04:16.769Z,29.9
2018-12-02T03:05:06.585Z,29.9
2018-12-02T03:05:56.665Z,30
2018-12-02T03:06:47.251Z,30.1
2018-12-02T03:07:36.237Z,30.2
2018-12-02T03:08:27.142Z,30.3
2018-12-02T03:09:18.436Z,30.3
2018-12-02T03:10:07.477Z,30.4
2018-12-02T03:10:57.497Z,30.4
2018-12-02T03:11:47.579Z,30.4
2018-12-02T03:12:37.121Z,30.5
2018-12-02T03:13:26.881Z,30.6
2018-12-02T03:14:18.126Z,30.6
2018-12-02T03:15:06.459Z,30.6
2018-12-02T03:15:56.315Z,30.7
2018-12-02T03:16:47.406Z,30.8
2018-12-02T03:17:37.762Z,30.8
2018-12-02T03:18:26.179Z,30.8
2018-12-02T03:19:18.324Z,30.8
2018-12-02T03:20:06.726Z,30.9
2018-12-02T03:20:57.648Z,30.9
2018-12-02T03:21:47.145Z,30.9
2018-12-02T03:22:37.160Z,30.9
2018-12-02T03:23:27.561Z,31
2018-12-02T03:24:17.912Z,31
2018-12-02T03:25:08.166Z,31.1
2018-12-02T03:25:58.087Z,31.1
2018-12-02T03:26:48.305Z,31.1
2018-12-02T03:27:37.888Z,31.1
2018-12-02T03:28:27.657Z,31.1
2018-12-02T03:29:19.021Z,31.1
2018-12-02T03:30:07.965Z,31.1
2018-12-02T03:30:57.437Z,30.8
2018-12-02T03:31:49.507Z,30.3
2018-12-02T03:32:38.289Z,29.7
2018-12-02T03:33:28.744Z,28.9
2018-12-02T03:34:18.450Z,28.1
2018-12-02T03:35:09.180Z,27.2
2018-12-02T03:35:58.105Z,26.2
2018-12-02T03:36:48.504Z,25.6
2018-12-02T03:37:39.027Z,25.6
2018-12-02T03:38:28.604Z,26.1
2018-12-02T03:39:18.644Z,26.9
2018-12-02T03:40:09.267Z,27.4
2018-12-02T03:40:58.736Z,27.7
2018-12-02T03:41:49.376Z,27.9
2018-12-02T03:42:37.526Z,28.1
2018-12-02T03:43:28.194Z,28.4
2018-12-02T03:44:18.273Z,28.7
2018-12-02T03:45:10.186Z,28.9
2018-12-02T03:45:57.997Z,29.1
2018-12-02T03:46:49.800Z,29.3
2018-12-02T03:47:38.939Z,29.4
2018-12-02T03:48:29.546Z,29.6
2018-12-02T03:49:18.811Z,29.8
2018-12-02T03:50:09.372Z,29.9
2018-12-02T03:50:59.347Z,30.1
2018-12-02T03:51:49.691Z,30.1
2018-12-02T03:52:40.104Z,30.3
2018-12-02T03:53:29.926Z,30.3
2018-12-02T03:54:20.450Z,30.4
2018-12-02T03:55:09.394Z,30.5
2018-12-02T03:56:00.089Z,30.6
2018-12-02T03:56:50.086Z,30.7
2018-12-02T03:57:40.424Z,30.8
2018-12-02T03:58:29.854Z,30.8
2018-12-02T03:59:20.301Z,30.9
2018-12-02T04:00:10.908Z,31
2018-12-02T04:01:01.243Z,31
2018-12-02T04:01:49.820Z,31.1
2018-12-02T04:02:40.171Z,31.1
2018-12-02T04:03:31.613Z,31.2
2018-12-02T04:04:19.744Z,31.3
2018-12-02T04:05:09.872Z,31.1
2018-12-02T04:06:00.972Z,31
2018-12-02T04:06:51.881Z,30.8
2018-12-02T04:07:40.315Z,30.7
2018-12-02T04:08:31.149Z,30.5
2018-12-02T04:09:20.936Z,30.4
2018-12-02T04:10:11.233Z,30.2
2018-12-02T04:11:01.901Z,30.1
2018-12-02T04:11:51.361Z,29.9
2018-12-02T04:12:41.713Z,29.8
2018-12-02T04:13:31.170Z,29.5
2018-12-02T04:14:21.553Z,28.3
2018-12-02T04:15:09.705Z,27.7
2018-12-02T04:16:01.168Z,27.3
2018-12-02T04:16:52.548Z,27.1
2018-12-02T04:17:41.986Z,26.9
2018-12-02T04:18:30.988Z,26.8
2018-12-02T04:19:20.828Z,26.6
2018-12-02T04:20:12.326Z,26.5
2018-12-02T04:21:02.582Z,26.3
2018-12-02T04:21:53.222Z,26.1
2018-12-02T04:22:41.893Z,26.3
2018-12-02T04:23:31.714Z,26.8
2018-12-02T04:24:20.905Z,27.1
2018-12-02T04:25:27.547Z,27.4
2018-12-02T04:26:01.807Z,27.8
2018-12-02T04:26:50.782Z,27.9
2018-12-02T04:27:42.329Z,28.1
2018-12-02T04:28:31.518Z,28.4
2018-12-02T04:29:22.092Z,28.6
2018-12-02T04:30:12.121Z,28.8
2018-12-02T04:31:03.240Z,29
2018-12-02T04:31:52.994Z,29.2
2018-12-02T04:32:41.902Z,29.3
2018-12-02T04:33:32.309Z,29.5
2018-12-02T04:34:23.378Z,29.6
2018-12-02T04:35:12.474Z,29.8
2018-12-02T04:36:02.360Z,29.9
2018-12-02T04:36:52.884Z,30
2018-12-02T04:54:09.421Z,31.1
2018-12-02T04:54:59.902Z,31.1
2018-12-02T04:55:49.693Z,31.2
2018-12-02T04:56:39.701Z,31.2
2018-12-02T04:57:30.834Z,31.3
2018-12-02T04:58:19.514Z,31.1
2018-12-02T04:59:10.760Z,30.9
2018-12-02T05:00:00.233Z,30.8
2018-12-02T05:00:50.196Z,30.6
2018-12-02T05:01:40.578Z,30.5
2018-12-02T05:02:30.625Z,30.3
2018-12-02T05:03:21.203Z,30.2
2018-12-02T05:04:10.815Z,30.1
2018-12-02T05:05:01.364Z,29.9
2018-12-02T05:05:50.856Z,29.7
2018-12-02T05:06:40.938Z,29.6
2018-12-02T05:07:30.936Z,29.4
2018-12-02T05:08:20.713Z,28.1
2018-12-02T05:09:11.209Z,27.5
2018-12-02T05:10:00.354Z,27.1
2018-12-02T05:10:50.655Z,26.9
2018-12-02T05:11:40.724Z,26.7
2018-12-02T05:12:29.875Z,26.6
2018-12-02T05:13:21.628Z,26.4
2018-12-02T05:14:11.475Z,26.2
2018-12-02T05:15:00.100Z,26.1
2018-12-02T05:15:51.570Z,26.3
2018-12-02T05:16:41.113Z,26.8
2018-12-02T05:17:31.105Z,27.1
2018-12-02T05:18:22.228Z,27.4
2018-12-02T05:19:12.045Z,27.6
2018-12-02T05:20:51.207Z,28.1
2018-12-02T05:21:41.457Z,28.3
2018-12-02T05:22:30.392Z,28.4
2018-12-02T05:23:22.304Z,28.6
2018-12-02T05:24:12.042Z,28.8
2018-12-02T05:25:02.219Z,28.9
2018-12-02T05:25:52.153Z,29.1
2018-12-02T05:26:41.860Z,29.2
2018-12-02T05:27:31.789Z,29.3
2018-12-02T05:28:21.107Z,29.4
2018-12-02T05:29:11.224Z,29.6
2018-12-02T05:30:02.793Z,29.6
2018-12-02T05:30:52.327Z,29.8
2018-12-02T05:31:41.842Z,29.8
2018-12-02T05:32:32.759Z,29.9
2018-12-02T05:33:22.694Z,30
2018-12-02T05:34:12.526Z,30
2018-12-02T05:35:02.814Z,30.1
2018-12-02T05:35:51.624Z,30.1
2018-12-02T05:36:43.433Z,30.2
2018-12-02T05:37:33.543Z,30.3
2018-12-02T05:38:22.796Z,30.3
2018-12-02T05:39:12.655Z,30.4
2018-12-02T05:40:02.753Z,30.4
2018-12-02T05:40:52.810Z,30.4
2018-12-02T05:41:43.558Z,30.4
2018-12-02T05:42:32.739Z,30.5
2018-12-02T05:43:22.296Z,30.5
2018-12-02T05:44:12.580Z,30.6
2018-12-02T05:45:04.078Z,30.6
2018-12-02T05:45:52.485Z,30.6
2018-12-02T05:46:42.575Z,30.6
2018-12-02T05:47:33.440Z,30.7
2018-12-02T05:48:23.287Z,30.7
2018-12-02T05:49:13.309Z,30.7
2018-12-02T05:50:03.365Z,30.8
2018-12-02T05:50:53.436Z,30.8
2018-12-02T05:51:43.546Z,30.8
2018-12-02T05:52:33.753Z,30.8
2018-12-02T05:53:23.840Z,30.9
2018-12-02T05:54:14.097Z,30.8
2018-12-02T05:55:03.896Z,30.7
2018-12-02T05:55:54.233Z,30.3
2018-12-02T05:56:45.639Z,29.8
2018-12-02T05:57:33.292Z,29
2018-12-02T05:58:24.403Z,28.3
2018-12-02T05:59:13.621Z,27.4
2018-12-02T06:00:03.508Z,26.4
2018-12-02T06:00:54.322Z,25.6
2018-12-02T06:01:44.665Z,25.3
2018-12-02T06:02:39.952Z,25.6
2018-12-02T06:03:23.622Z,26.3
2018-12-02T06:04:14.539Z,26.9
2018-12-02T06:05:04.044Z,27.4
2018-12-02T06:05:56.089Z,27.6
2018-12-02T06:07:35.021Z,28
2018-12-02T06:08:24.284Z,28.3
2018-12-02T06:09:16.019Z,28.4
2018-12-02T06:10:04.704Z,28.7
2018-12-02T06:10:54.686Z,28.9
2018-12-02T06:11:50.954Z,29.1
2018-12-02T06:12:34.896Z,29.3
2018-12-02T06:13:25.441Z,29.4
2018-12-02T06:14:14.920Z,29.5
2018-12-02T06:15:05.001Z,29.6
2018-12-02T06:15:55.836Z,29.8
2018-12-02T06:16:46.283Z,29.9
2018-12-02T06:17:36.305Z,29.9
2018-12-02T06:18:26.331Z,30.1
2018-12-02T06:19:16.124Z,30.1
2018-12-02T06:20:11.764Z,30.3
2018-12-02T06:20:57.355Z,30.3
2018-12-02T06:21:46.421Z,30.4
2018-12-02T06:22:36.375Z,30.4
2018-12-02T06:23:26.126Z,30.6
2018-12-02T06:24:16.427Z,30.6
2018-12-02T06:25:05.966Z,30.7
2018-12-02T06:25:56.865Z,30.7
2018-12-02T06:26:46.381Z,30.8
2018-12-02T06:27:37.008Z,30.8
2018-12-02T06:28:26.755Z,30.9
2018-12-02T06:29:15.973Z,30.9
2018-12-02T06:30:06.280Z,30.9
2018-12-02T06:30:56.873Z,31
2018-12-02T06:31:46.478Z,31
2018-12-02T06:32:36.438Z,31.1
2018-12-02T06:33:26.820Z,31.1
2018-12-02T06:34:16.577Z,31.1
2018-12-02T06:35:06.919Z,31.2
2018-12-02T06:35:56.688Z,31.2
2018-12-02T06:36:47.247Z,31.1
2018-12-02T06:37:36.487Z,30.9
2018-12-02T06:38:27.397Z,30.8
2018-12-02T06:39:16.915Z,30.6
2018-12-02T06:40:07.627Z,30.4
2018-12-02T06:40:56.465Z,30.3
2018-12-02T06:41:47.547Z,30.1
2018-12-02T06:42:36.552Z,29.9
2018-12-02T06:43:28.342Z,29.8
2018-12-02T06:44:17.257Z,29.6
2018-12-02T06:45:06.293Z,29.5
2018-12-02T06:45:57.351Z,28.3
2018-12-02T06:46:47.939Z,27.6
2018-12-02T06:47:37.479Z,27.2
2018-12-02T06:48:28.067Z,26.9
2018-12-02T06:49:17.597Z,26.7
2018-12-02T06:50:08.762Z,26.6
2018-12-02T06:50:58.364Z,26.4
2018-12-02T06:51:48.274Z,26.2
2018-12-02T06:52:37.314Z,26.1
2018-12-02T06:53:27.636Z,26.3
2018-12-02T06:54:17.314Z,26.8
2018-12-02T06:55:08.258Z,27.1
2018-12-02T06:55:58.053Z,27.4
2018-12-02T06:56:47.354Z,27.6
2018-12-02T06:58:28.861Z,28.1
2018-12-02T06:59:18.006Z,28.3
2018-12-02T07:00:08.347Z,28.4
2018-12-02T07:00:59.024Z,28.7
2018-12-02T07:01:48.771Z,28.9
2018-12-02T07:02:38.362Z,29.1
2018-12-02T07:03:28.825Z,29.2
2018-12-02T07:04:18.880Z,29.3
2018-12-02T07:05:09.778Z,29.4
2018-12-02T07:05:58.527Z,29.6
2018-12-02T07:06:49.425Z,29.7
2018-12-02T07:07:39.122Z,29.8
2018-12-02T07:08:29.488Z,29.9
2018-12-02T07:09:20.650Z,30
2018-12-02T07:10:08.473Z,30.1
2018-12-02T07:10:59.630Z,30.2
2018-12-02T07:11:49.124Z,30.3
2018-12-02T07:12:39.142Z,30.3
2018-12-02T07:13:30.079Z,30.4
2018-12-02T07:14:19.892Z,30.5
2018-12-02T07:15:09.364Z,30.5
2018-12-02T07:15:59.178Z,30.6
2018-12-02T07:16:50.079Z,30.7
2018-12-02T07:17:39.509Z,30.7
2018-12-02T07:18:29.656Z,30.8
2018-12-02T07:19:19.069Z,30.8
2018-12-02T07:20:10.202Z,30.8
2018-12-02T07:20:59.722Z,30.9
2018-12-02T07:21:49.857Z,30.9
2018-12-02T07:22:40.705Z,30.9
2018-12-02T07:23:29.897Z,31
2018-12-02T07:24:20.301Z,31.1
2018-12-02T07:25:09.542Z,31.1
2018-12-02T07:26:00.622Z,31.1
2018-12-02T07:26:50.739Z,31.1
2018-12-02T07:27:39.992Z,31.2
2018-12-02T07:28:30.186Z,31.2
2018-12-02T07:29:20.629Z,31
2018-12-02T07:30:09.404Z,30.8
2018-12-02T07:31:00.701Z,30.7
2018-12-02T07:31:50.751Z,30.5
2018-12-02T07:32:42.659Z,30.3
2018-12-02T07:33:31.144Z,30.2
2018-12-02T07:34:20.369Z,30.1
2018-12-02T07:35:10.711Z,29.9
2018-12-02T07:36:00.791Z,29.7
2018-12-02T07:36:50.608Z,29.6
2018-12-02T07:37:41.433Z,28.6
2018-12-02T07:38:30.702Z,27.8
2018-12-02T07:39:21.019Z,27.3
2018-12-02T07:40:11.331Z,27
2018-12-02T07:41:00.853Z,26.8
2018-12-02T07:41:51.461Z,26.6
2018-12-02T07:42:41.233Z,26.5
2018-12-02T07:43:31.116Z,26.3
2018-12-02T07:44:22.146Z,26.1
2018-12-02T07:45:12.223Z,26.3
2018-12-02T07:46:02.512Z,26.6
2018-12-02T07:46:52.030Z,27.1
2018-12-02T07:47:41.030Z,27.4
2018-12-02T07:48:31.098Z,27.6
2018-12-02T07:49:21.538Z,27.9
2018-12-02T07:50:11.812Z,28.1
2018-12-02T07:51:01.780Z,28.3
2018-12-02T07:51:51.843Z,28.5
2018-12-02T07:52:41.156Z,28.7
2018-12-02T07:53:31.992Z,28.9
2018-12-02T07:54:22.323Z,29.1
2018-12-02T07:55:12.928Z,29.2
2018-12-02T07:56:02.878Z,29.4
2018-12-02T07:56:52.802Z,29.5
2018-12-02T07:57:42.140Z,29.6
2018-12-02T07:58:32.932Z,29.8
2018-12-02T07:59:23.193Z,29.8
2018-12-02T08:00:13.029Z,29.9
2018-12-02T08:01:03.310Z,30
2018-12-02T08:01:52.829Z,30.1
2018-12-02T08:02:42.899Z,30.1
2018-12-02T08:03:32.912Z,30.2
2018-12-02T08:04:22.197Z,30.3
2018-12-02T08:05:13.018Z,30.3
2018-12-02T08:06:02.610Z,30.4
2018-12-02T08:06:52.874Z,30.4
2018-12-02T08:07:43.754Z,30.6
2018-12-02T08:08:32.732Z,30.6
2018-12-02T08:09:23.589Z,30.6
2018-12-02T08:10:12.814Z,30.7
2018-12-02T08:11:04.616Z,30.8
2018-12-02T08:11:52.936Z,30.8
2018-12-02T08:12:43.560Z,30.8
2018-12-02T08:13:33.596Z,30.9
2018-12-02T08:14:23.718Z,30.9
2018-12-02T08:15:12.946Z,30.9
2018-12-02T08:16:04.017Z,31
2018-12-02T08:16:54.984Z,31
2018-12-02T08:17:43.884Z,31.1
2018-12-02T08:18:34.225Z,30.9
2018-12-02T08:19:23.705Z,30.6
2018-12-02T08:20:14.326Z,29.9
2018-12-02T08:21:04.440Z,29.1
2018-12-02T08:21:53.390Z,28.3
2018-12-02T08:22:43.156Z,27.4
2018-12-02T08:23:33.819Z,26.4
2018-12-02T08:24:24.400Z,25.6
2018-12-02T08:25:14.682Z,25.5
2018-12-02T08:26:04.748Z,25.9
2018-12-02T08:26:54.470Z,26.6
2018-12-02T08:27:45.172Z,27.1
2018-12-02T08:28:34.672Z,27.5
2018-12-02T08:29:24.736Z,27.8
2018-12-02T08:30:15.320Z,28
2018-12-02T08:31:04.552Z,28.3
2018-12-02T08:31:54.439Z,28.6
2018-12-02T08:32:44.791Z,28.8
2018-12-02T08:33:33.260Z,29.1
2018-12-02T08:34:24.319Z,29.3
2018-12-02T08:35:13.822Z,29.5
2018-12-02T08:36:04.481Z,29.6
2018-12-02T08:36:54.221Z,29.8
2018-12-02T08:37:44.556Z,29.9
2018-12-02T08:38:34.882Z,30.1
2018-12-02T08:39:24.704Z,30.3
2018-12-02T08:40:15.527Z,30.4
2018-12-02T08:41:05.523Z,30.6
2018-12-02T08:41:56.093Z,30.7
2018-12-02T08:42:45.371Z,30.8
2018-12-02T08:43:35.696Z,30.9
2018-12-02T08:44:25.508Z,31
2018-12-02T08:45:14.718Z,31.1
2018-12-02T08:46:06.257Z,31.1
2018-12-02T08:46:55.923Z,31.1
2018-12-02T08:47:45.486Z,31
2018-12-02T08:48:35.013Z,30.9
2018-12-02T08:49:24.970Z,30.7
2018-12-02T08:50:16.253Z,30.6
2018-12-02T08:51:05.101Z,30.4
2018-12-02T08:51:56.110Z,30.3
2018-12-02T08:52:46.388Z,30.1
2018-12-02T09:08:35.342Z,27.3
2018-12-02T09:09:26.477Z,27.6
2018-12-02T09:10:14.394Z,28
2018-12-02T09:11:04.923Z,28.3
2018-12-02T09:11:55.239Z,28.6
2018-12-02T09:12:45.542Z,28.8
2018-12-02T09:13:35.680Z,29.1
2018-12-02T09:14:25.167Z,29.3
2018-12-02T09:15:17.344Z,29.5
2018-12-02T09:16:05.496Z,29.6
2018-12-02T09:16:55.342Z,29.8
2018-12-02T09:17:45.619Z,29.9
2018-12-02T09:18:36.620Z,30.1
2018-12-02T09:19:25.467Z,30.3
2018-12-02T09:20:15.244Z,30.4
2018-12-02T09:21:04.777Z,30.5
2018-12-02T09:21:55.932Z,30.6
2018-12-02T09:22:45.959Z,30.8
2018-12-02T09:23:36.626Z,30.9
2018-12-02T09:24:25.965Z,31
2018-12-02T09:25:16.446Z,31.1
2018-12-02T09:26:05.926Z,31.2
2018-12-02T09:26:55.749Z,31.2
2018-12-02T09:27:44.996Z,31.1
2018-12-02T09:28:36.751Z,30.9
2018-12-02T09:29:26.226Z,30.8
2018-12-02T09:30:16.859Z,30.6
2018-12-02T09:31:05.044Z,30.4
2018-12-02T09:31:55.276Z,30.3
2018-12-02T09:32:46.496Z,30.1
2018-12-02T09:33:36.980Z,30
2018-12-02T09:34:27.618Z,29.8
2018-12-02T09:35:15.953Z,29.7
2018-12-02T09:36:06.410Z,28.9
2018-12-02T09:37:02.981Z,28.2
2018-12-02T09:37:46.658Z,27.7
2018-12-02T09:38:37.688Z,27.4
2018-12-02T09:39:27.539Z,27.2
2018-12-02T09:40:16.124Z,27.1
2018-12-02T09:41:07.278Z,26.9
2018-12-02T09:41:57.283Z,26.8
2018-12-02T09:42:47.420Z,26.6
2018-12-02T09:43:36.933Z,26.4
2018-12-02T09:44:28.081Z,26.1
2018-12-02T09:45:17.633Z,26.1
2018-12-02T09:46:07.591Z,26.4
2018-12-02T09:46:57.110Z,26.8
2018-12-02T09:47:47.738Z,27.2
2018-12-02T09:48:38.035Z,27.5
2018-12-02T09:50:18.118Z,28.1
2018-12-02T09:51:09.045Z,28.4
2018-12-02T09:51:58.852Z,28.7
2018-12-02T09:52:48.395Z,28.9
2018-12-02T09:53:39.275Z,29.2
2018-12-02T09:54:31.682Z,29.4
2018-12-02T09:55:18.511Z,29.6
2018-12-02T09:56:08.597Z,29.8
2018-12-02T09:56:57.901Z,29.9
2018-12-02T09:57:47.134Z,30.1
2018-12-02T09:58:38.214Z,30.3
2018-12-02T09:59:27.207Z,30.4
2018-12-02T10:00:17.954Z,30.4
2018-12-02T10:01:08.107Z,30.6
2018-12-02T10:01:58.430Z,30.7
2018-12-02T10:02:48.805Z,30.9
2018-12-02T10:03:38.915Z,30.9
2018-12-02T10:04:30.170Z,31.1
2018-12-02T10:05:18.777Z,31.2
2018-12-02T10:06:09.372Z,31.2
2018-12-02T10:06:59.086Z,31
2018-12-02T10:07:49.472Z,30.9
2018-12-02T10:08:39.739Z,30.8
2018-12-02T10:09:30.117Z,30.6
2018-12-02T10:10:25.357Z,30.4
2018-12-02T10:11:08.972Z,30.3
2018-12-02T10:11:59.126Z,30.1
2018-12-02T10:12:49.461Z,30
2018-12-02T10:13:40.361Z,29.9
2018-12-02T10:14:29.874Z,29.7
2018-12-02T10:15:20.507Z,29.6
2018-12-02T10:16:17.304Z,29.4
2018-12-02T10:16:59.909Z,29.3
2018-12-02T10:17:49.362Z,29.1
2018-12-02T10:18:39.426Z,29
2018-12-02T10:19:29.481Z,28.9
2018-12-02T10:20:19.813Z,28.8
2018-12-02T10:21:10.135Z,28.6
2018-12-02T10:22:00.351Z,28.5
2018-12-02T10:22:49.673Z,28.3
2018-12-02T10:23:40.221Z,28.2
2018-12-02T10:24:29.828Z,28.1
2018-12-02T10:25:19.793Z,27.9
2018-12-02T10:27:01.273Z,27.6
2018-12-02T10:27:50.370Z,27.5
2018-12-02T10:28:40.096Z,27.4
2018-12-02T10:29:29.806Z,27.3
2018-12-02T10:30:20.974Z,27.2
2018-12-02T10:31:11.025Z,27
2018-12-02T10:32:00.973Z,26.9
2018-12-02T10:32:50.152Z,26.8
2018-12-02T10:33:41.485Z,26.7
2018-12-02T10:34:30.482Z,26.6
2018-12-02T10:35:20.030Z,26.4
2018-12-02T10:36:10.868Z,26.3
2018-12-02T10:37:01.547Z,26.2
2018-12-02T10:37:50.463Z,26.1
2018-12-02T10:38:41.370Z,26
2018-12-02T10:39:30.595Z,25.8
2018-12-02T10:40:21.480Z,25.8
2018-12-02T10:41:11.080Z,25.6
2018-12-02T10:41:59.773Z,25.4
2018-12-02T10:42:51.130Z,25.4
2018-12-02T10:43:41.479Z,25.3
2018-12-02T10:44:31.712Z,25.1
2018-12-02T10:45:21.587Z,25
2018-12-02T10:46:10.545Z,24.9
2018-12-02T10:47:03.129Z,24.8
2018-12-02T10:47:52.992Z,24.7
2018-12-02T10:48:42.018Z,24.6
2018-12-02T10:49:31.811Z,24.4
2018-12-02T10:50:22.106Z,24.3
2018-12-02T10:51:12.524Z,24.3
2018-12-02T10:52:02.636Z,24.1
2018-12-02T10:52:51.881Z,24
2018-12-02T10:53:41.284Z,23.9
2018-12-02T10:54:32.933Z,23.8
2018-12-02T10:55:22.236Z,23.7
2018-12-02T10:56:12.456Z,23.6
2018-12-02T10:57:02.374Z,23.5
2018-12-02T10:57:51.543Z,23.4
2018-12-02T10:58:42.498Z,23.3
2018-12-02T10:59:33.126Z,23.2
2018-12-02T11:00:22.857Z,23.1
2018-12-02T11:01:12.085Z,23
2018-12-02T11:02:02.666Z,22.9
2018-12-02T11:02:51.952Z,22.8
2018-12-02T11:03:41.914Z,22.7
2018-12-02T11:04:32.575Z,22.6
2018-12-02T11:05:23.402Z,22.5
2018-12-02T11:06:14.025Z,22.4
2018-12-02T11:07:02.498Z,22.3
2018-12-02T11:07:53.270Z,22.2
2018-12-02T11:08:44.273Z,22.1
2018-12-02T11:09:33.370Z,22
2018-12-02T11:10:23.455Z,21.9
2018-12-02T11:11:13.022Z,21.8
2018-12-02T11:12:02.417Z,21.8
2018-12-02T11:12:53.790Z,21.6
2018-12-02T11:13:43.715Z,21.6
2018-12-02T11:14:34.293Z,21.5
2018-12-02T11:15:24.660Z,21.4
2018-12-02T11:16:14.178Z,21.3
2018-12-02T11:17:05.025Z,21.2
2018-12-02T11:18:45.194Z,21.1
2018-12-02T11:19:33.002Z,21
2018-12-02T11:20:23.965Z,20.9
2018-12-02T11:21:14.297Z,20.8
2018-12-02T11:22:04.585Z,20.8
2018-12-02T11:22:54.144Z,20.7
2018-12-02T11:23:44.943Z,20.6
2018-12-02T11:24:34.439Z,20.5
2018-12-02T11:25:24.912Z,20.4
2018-12-02T11:26:13.831Z,20.3
2018-12-02T11:27:05.097Z,20.3
2018-12-02T11:27:54.624Z,20.2
2018-12-02T11:28:44.585Z,20.1
2018-12-02T11:29:35.199Z,20.1
2018-12-02T11:30:25.210Z,20
2018-12-02T11:31:15.004Z,19.9
2018-12-02T11:32:05.059Z,19.8
2018-12-02T11:32:55.214Z,19.8
2018-12-02T11:33:43.324Z,19.7
2018-12-02T11:34:34.999Z,19.6
2018-12-02T11:35:24.524Z,19.6
2018-12-02T11:36:14.584Z,19.5
2018-12-02T11:37:03.564Z,19.4
2018-12-02T11:37:55.256Z,19.3
2018-12-02T11:38:45.646Z,19.3
2018-12-02T11:39:34.761Z,19.2
2018-12-02T11:40:25.856Z,19.1
2018-12-02T11:41:15.406Z,19.1
2018-12-02T11:42:04.828Z,19.1
2018-12-02T11:42:55.763Z,18.9
2018-12-02T11:43:46.591Z,18.9
2018-12-02T11:44:36.705Z,18.8
2018-12-02T11:45:25.946Z,18.8
2018-12-02T11:47:06.868Z,18.6
2018-12-02T11:47:56.990Z,18.6
2018-12-02T11:48:46.710Z,18.5
2018-12-02T11:49:36.507Z,18.5
2018-12-02T11:50:27.395Z,18.4
2018-12-02T11:51:16.587Z,18.3
2018-12-02T11:52:06.757Z,18.3
2018-12-02T11:52:57.103Z,18.3
2018-12-02T11:53:47.327Z,18.2
2018-12-02T11:54:37.140Z,18.1
2018-12-02T11:55:27.078Z,18.1
2018-12-02T11:56:17.785Z,18
2018-12-02T11:57:08.551Z,17.9
2018-12-02T11:57:57.235Z,17.9
2018-12-02T11:58:46.700Z,17.9
2018-12-02T11:59:36.987Z,17.8
2018-12-02T12:00:27.282Z,17.8
2018-12-02T12:01:16.292Z,17.7
2018-12-02T12:02:13.416Z,17.6
2018-12-02T12:02:57.530Z,17.6
2018-12-02T12:03:47.897Z,17.5
2018-12-02T12:04:37.640Z,17.5
2018-12-02T12:05:27.447Z,17.4
2018-12-02T12:06:17.771Z,17.4